createdAt,value
2023-06-04T20:30:24.481Z,96215.59
2023-06-04T20:32:50.870Z,96209.41
2023-06-04T20:35:17.272Z,96220.47
2023-06-04T20:37:43.708Z,96230.91
2023-06-04T20:40:10.049Z,96219.50
2023-06-04T20:42:36.417Z,96226.66
2023-06-04T20:45:02.774Z,96227.16
2023-06-04T20:47:29.157Z,96230.59
2023-06-04T20:49:55.538Z,96232.22
2023-06-04T20:52:21.893Z,96230.44
2023-06-04T20:54:48.261Z,96239.03
2023-06-04T20:57:14.630Z,96248.00
2023-06-04T20:59:40.988Z,96250.06
2023-06-04T21:02:07.373Z,96248.00
2023-06-04T21:04:33.783Z,96254.66
2023-06-04T21:07:00.139Z,96251.06
2023-06-04T21:09:26.500Z,96252.69
2023-06-04T21:11:52.871Z,96259.31
2023-06-04T21:14:19.210Z,96259.19
2023-06-04T21:16:45.596Z,96264.28
2023-06-04T21:19:11.997Z,96260.16
2023-06-04T21:21:38.331Z,96270.00
2023-06-04T21:24:04.780Z,96267.38
2023-06-04T21:26:31.245Z,96266.03
2023-06-04T21:28:57.586Z,96262.88
2023-06-04T21:31:23.963Z,96267.84
2023-06-04T21:33:50.345Z,96265.03
2023-06-04T21:36:16.687Z,96267.25
2023-06-04T21:38:43.027Z,96256.84
2023-06-04T21:41:09.614Z,96264.13
2023-06-04T21:43:35.987Z,96264.97
2023-06-04T21:46:02.701Z,96269.75
2023-06-04T21:48:29.119Z,96261.44
2023-06-04T21:50:55.467Z,96270.03
2023-06-04T21:53:21.812Z,96275.50
2023-06-04T21:55:48.168Z,96278.63
2023-06-04T21:58:14.504Z,96285.34
2023-06-04T22:00:40.851Z,96275.00
2023-06-04T22:03:07.386Z,96274.88
2023-06-04T22:05:33.782Z,96278.53
2023-06-04T22:08:00.119Z,96274.13
2023-06-04T22:10:26.511Z,96278.44
2023-06-04T22:12:52.859Z,96272.31
2023-06-04T22:15:19.220Z,96277.53
2023-06-04T22:17:45.659Z,96282.84
2023-06-04T22:20:12.024Z,96282.59
2023-06-04T22:22:38.366Z,96281.22
2023-06-04T22:25:04.751Z,96271.50
2023-06-04T22:27:31.099Z,96277.13
2023-06-04T22:29:57.459Z,96281.31
2023-06-04T22:32:23.836Z,96276.34
2023-06-04T22:34:50.198Z,96275.50
2023-06-04T22:37:16.543Z,96272.47
2023-06-04T22:39:42.930Z,96275.19
2023-06-04T22:42:09.281Z,96277.84
2023-06-04T22:44:35.638Z,96272.69
2023-06-04T22:47:02.101Z,96277.44
2023-06-04T22:49:28.508Z,96275.78
2023-06-04T22:51:54.951Z,96280.91
2023-06-04T22:54:21.361Z,96278.22
2023-06-04T22:56:47.702Z,96270.25
2023-06-04T22:59:14.042Z,96276.34
2023-06-04T23:01:40.405Z,96274.13
2023-06-04T23:04:06.920Z,96271.09
2023-06-04T23:06:33.370Z,96266.72
2023-06-04T23:08:59.748Z,96266.59
2023-06-04T23:11:26.085Z,96264.38
2023-06-04T23:13:52.434Z,96263.53
2023-06-04T23:16:18.819Z,96261.41
2023-06-04T23:18:45.205Z,96255.66
2023-06-04T23:21:11.566Z,96260.41
2023-06-04T23:23:37.943Z,96263.84
2023-06-04T23:26:04.326Z,96266.19
2023-06-04T23:28:30.690Z,96270.31
2023-06-04T23:30:57.051Z,96265.19
2023-06-04T23:33:23.419Z,96267.63
2023-06-04T23:35:49.766Z,96257.59
2023-06-04T23:38:16.156Z,96262.00
2023-06-04T23:40:42.511Z,96262.47
2023-06-04T23:43:08.874Z,96256.66
2023-06-04T23:45:35.249Z,96258.25
2023-06-04T23:48:01.678Z,96268.22
2023-06-04T23:50:28.052Z,96262.41
2023-06-04T23:52:54.468Z,96263.47
2023-06-04T23:55:20.815Z,96270.84
2023-06-04T23:57:47.169Z,96260.59
